Portada
METAR-TAF:

METAR-TAF

Aeroports :

Cuneo, Itàlia

latitud: 44-32-47N, longitud: 007-37-20E, altitud: 386 m

Observació

L'informe es va fer fa 22 minuts, a les 06:50 UTC
Vent 1 kt del Nord
Temperatura 8°C
Humitat 100%
Pressió 1012 hPa
Visibilitat: 2000 m
Escasses núvols a una alçada de 500 ft
boirina

METAR: LIMZ 250650Z 36001KT 2000 BR FEW005 08/08 Q1012

Hora: 08:12 (07:12 UTC)

Pronòstic

L'informe es va fer fa 2 hores i 12 minuts, a les 05:00 UTC
Pronòstic vàlid del 25 a les 06 UTC al 26 a les 06 UTC
Vent 5 kt amb direcció variable
Visibilitat: 6000 m
Cel ennuvolat a una alçada de 1500 ft
Temporalment
l' 25 a les 06 UTC al 25 a les 08 UTC
Visibilitat: 1500 m
boira en bancs
Evolucionant progressivament
l' 25 a les 08 UTC al 25 a les 10 UTC
Cel ennuvolat a una alçada de 3500 ft
Evolucionant progressivament
l' 26 a les 00 UTC al 26 a les 03 UTC
Vent 15 kt del Oest

TAF: LIMZ 250500Z 2506/2606 VRB05KT 6000 BKN015 TEMPO 2506/2508 1500 BCFG BECMG 2508/2510 BKN035 BECMG 2600/2603 28015KT

Observacions i pronòstics meteorològics de més de 4000 aeroports (METAR i TAF).

Les estacions disponibles són els punts grocs i vermells al mapa.

Posi el ratolí al punt desitjat per veure el nom de l'estació.

Feu clic per veure les observacions i els pronòstics meteorològics.

Per canviar el mapa: feu clic els botons verds amb una creu de color negre per apropar; al botó verd amb un guió per allunyar la imatge; o en les fletxes verdes per a mapes adjacents.


METAR-TAF: